Iowa Park, Texas
Current Conditions -  °F | °C
As of 4:52 PM on Saturday 25 Oct 2014 (Local Time) from KSPS Reporting Station
Clear Clear  
Wind Chill: 90°   Ceiling: Unl
Heat Index: 90°   Visibility: 10mi
Dew Point: 55°   Wind: 12mph
Humidity: 30%   Direction: 180°S
Pressure: 30.03"   Gusts: NA
Location:  33.95°N, 98.65°W
Report Text: KSPS 252152Z AUTO 18010KT 10SM CLR 32/13 A3003 RMK AO2 SLP157 T03220128 TSNO
Loading
Personal Weather Stations






























Interactive Weather Map
Tropical Storm Tracking
New forecast layout! Learn more

10-Day Weather Forecast

Advertisements
Track Severe Weather on mobile